sensor_id;sensor_type;location;lat;lon;timestamp;pressure;altitude;pressure_sealevel;temperature;humidity
23677;BME280;31493;49.058;12.190;2023-04-25T00:00:27;95380.63;;;7.30;100.00
23677;BME280;31493;49.058;12.190;2023-04-25T00:02:54;95376.88;;;7.09;100.00
23677;BME280;31493;49.058;12.190;2023-04-25T00:05:23;95381.25;;;7.21;100.00
23677;BME280;31493;49.058;12.190;2023-04-25T00:07:50;95382.19;;;7.33;100.00
23677;BME280;31493;49.058;12.190;2023-04-25T00:10:17;95378.38;;;7.38;100.00
23677;BME280;31493;49.058;12.190;2023-04-25T00:12:45;95378.28;;;7.40;100.00
23677;BME280;31493;49.058;12.190;2023-04-25T00:15:13;95368.19;;;7.37;100.00
23677;BME280;31493;49.058;12.190;2023-04-25T00:17:41;95371.19;;;7.56;100.00
23677;BME280;31493;49.058;12.190;2023-04-25T00:20:09;95353.47;;;7.51;100.00
23677;BME280;31493;49.058;12.190;2023-04-25T00:22:36;95365.50;;;7.51;100.00
23677;BME280;31493;49.058;12.190;2023-04-25T00:25:04;95358.91;;;7.47;100.00
23677;BME280;31493;49.058;12.190;2023-04-25T00:27:32;95350.88;;;7.39;100.00
23677;BME280;31493;49.058;12.190;2023-04-25T00:30:00;95355.22;;;7.38;100.00
23677;BME280;31493;49.058;12.190;2023-04-25T00:32:27;95364.28;;;7.31;100.00
23677;BME280;31493;49.058;12.190;2023-04-25T00:34:54;95360.53;;;7.22;100.00
23677;BME280;31493;49.058;12.190;2023-04-25T00:37:23;95359.13;;;7.31;100.00
23677;BME280;31493;49.058;12.190;2023-04-25T00:39:50;95368.91;;;7.26;100.00
23677;BME280;31493;49.058;12.190;2023-04-25T00:42:19;95365.91;;;7.19;100.00
23677;BME280;31493;49.058;12.190;2023-04-25T00:44:47;95362.41;;;7.20;100.00
23677;BME280;31493;49.058;12.190;2023-04-25T00:47:15;95363.94;;;7.23;100.00
23677;BME280;31493;49.058;12.190;2023-04-25T00:49:43;95347.16;;;7.30;100.00
23677;BME280;31493;49.058;12.190;2023-04-25T00:52:10;95355.19;;;7.25;100.00
23677;BME280;31493;49.058;12.190;2023-04-25T00:54:37;95359.53;;;7.25;100.00
23677;BME280;31493;49.058;12.190;2023-04-25T00:57:05;95353.69;;;6.96;100.00
23677;BME280;31493;49.058;12.190;2023-04-25T00:59:33;95355.88;;;7.02;100.00
23677;BME280;31493;49.058;12.190;2023-04-25T01:02:00;95353.09;;;7.05;100.00
23677;BME280;31493;49.058;12.190;2023-04-25T01:04:29;95339.94;;;7.10;100.00
23677;BME280;31493;49.058;12.190;2023-04-25T01:06:56;95351.56;;;7.15;100.00
23677;BME280;31493;49.058;12.190;2023-04-25T01:09:24;95351.31;;;6.93;100.00
23677;BME280;31493;49.058;12.190;2023-04-25T01:11:51;95345.34;;;6.92;100.00
23677;BME280;31493;49.058;12.190;2023-04-25T01:14:18;95341.22;;;6.90;100.00
23677;BME280;31493;49.058;12.190;2023-04-25T01:16:45;95339.59;;;6.89;100.00
23677;BME280;31493;49.058;12.190;2023-04-25T01:19:16;95340.50;;;6.88;100.00
23677;BME280;31493;49.058;12.190;2023-04-25T01:21:45;95351.41;;;6.91;100.00
23677;BME280;31493;49.058;12.190;2023-04-25T01:24:13;95349.66;;;6.92;100.00
23677;BME280;31493;49.058;12.190;2023-04-25T01:26:41;95343.19;;;6.99;100.00
23677;BME280;31493;49.058;12.190;2023-04-25T01:29:15;95345.75;;;6.99;100.00
23677;BME280;31493;49.058;12.190;2023-04-25T01:31:42;95349.47;;;6.95;100.00
23677;BME280;31493;49.058;12.190;2023-04-25T01:34:09;95352.97;;;6.94;100.00
23677;BME280;31493;49.058;12.190;2023-04-25T01:36:36;95342.78;;;6.92;100.00
23677;BME280;31493;49.058;12.190;2023-04-25T01:39:05;95341.38;;;7.01;100.00
23677;BME280;31493;49.058;12.190;2023-04-25T01:41:33;95351.72;;;6.99;100.00
23677;BME280;31493;49.058;12.190;2023-04-25T01:44:01;95348.44;;;6.97;100.00
23677;BME280;31493;49.058;12.190;2023-04-25T01:46:29;95343.47;;;6.82;100.00
23677;BME280;31493;49.058;12.190;2023-04-25T01:48:56;95343.91;;;6.88;100.00
23677;BME280;31493;49.058;12.190;2023-04-25T01:51:23;95350.88;;;6.86;100.00
23677;BME280;31493;49.058;12.190;2023-04-25T01:53:50;95347.09;;;6.92;100.00
23677;BME280;31493;49.058;12.190;2023-04-25T01:56:19;95351.41;;;6.91;100.00
23677;BME280;31493;49.058;12.190;2023-04-25T01:58:46;95351.41;;;6.91;100.00
23677;BME280;31493;49.058;12.190;2023-04-25T02:01:13;95352.13;;;6.93;100.00
23677;BME280;31493;49.058;12.190;2023-04-25T02:03:40;95355.75;;;6.91;100.00
23677;BME280;31493;49.058;12.190;2023-04-25T02:06:07;95361.53;;;6.94;100.00
23677;BME280;31493;49.058;12.190;2023-04-25T02:08:34;95344.88;;;7.00;100.00
23677;BME280;31493;49.058;12.190;2023-04-25T02:11:03;95343.59;;;6.93;100.00
23677;BME280;31493;49.058;12.190;2023-04-25T02:13:31;95337.31;;;6.97;100.00
23677;BME280;31493;49.058;12.190;2023-04-25T02:15:58;95339.25;;;6.93;100.00
23677;BME280;31493;49.058;12.190;2023-04-25T02:18:25;95334.66;;;6.98;100.00
23677;BME280;31493;49.058;12.190;2023-04-25T02:20:53;95341.72;;;6.82;100.00
23677;BME280;31493;49.058;12.190;2023-04-25T02:23:20;95331.03;;;6.88;100.00
23677;BME280;31493;49.058;12.190;2023-04-25T02:25:47;95331.34;;;6.84;100.00
23677;BME280;31493;49.058;12.190;2023-04-25T02:28:15;95341.34;;;6.88;100.00
23677;BME280;31493;49.058;12.190;2023-04-25T02:30:43;95343.09;;;6.88;100.00
23677;BME280;31493;49.058;12.190;2023-04-25T02:33:10;95329.88;;;6.80;100.00
23677;BME280;31493;49.058;12.190;2023-04-25T02:35:37;95335.66;;;6.83;100.00
23677;BME280;31493;49.058;12.190;2023-04-25T02:38:04;95321.72;;;6.73;100.00
23677;BME280;31493;49.058;12.190;2023-04-25T02:40:31;95333.66;;;6.74;100.00
23677;BME280;31493;49.058;12.190;2023-04-25T02:42:58;95323.59;;;6.71;100.00
23677;BME280;31493;49.058;12.190;2023-04-25T02:45:25;95312.38;;;6.72;100.00
23677;BME280;31493;49.058;12.190;2023-04-25T02:47:54;95314.00;;;6.73;100.00
23677;BME280;31493;49.058;12.190;2023-04-25T02:50:21;95324.50;;;6.70;100.00
23677;BME280;31493;49.058;12.190;2023-04-25T02:52:48;95309.78;;;6.72;100.00
23677;BME280;31493;49.058;12.190;2023-04-25T02:55:15;95308.00;;;6.60;100.00
23677;BME280;31493;49.058;12.190;2023-04-25T02:57:42;95309.97;;;6.69;100.00
23677;BME280;31493;49.058;12.190;2023-04-25T03:00:10;95307.22;;;6.72;100.00
23677;BME280;31493;49.058;12.190;2023-04-25T03:02:39;95304.94;;;6.67;100.00
23677;BME280;31493;49.058;12.190;2023-04-25T03:05:08;95300.41;;;6.58;100.00
23677;BME280;31493;49.058;12.190;2023-04-25T03:07:35;95299.59;;;6.58;100.00
23677;BME280;31493;49.058;12.190;2023-04-25T03:10:03;95297.97;;;6.69;100.00
23677;BME280;31493;49.058;12.190;2023-04-25T03:12:31;95296.22;;;6.70;100.00
23677;BME280;31493;49.058;12.190;2023-04-25T03:14:58;95296.19;;;6.57;100.00
23677;BME280;31493;49.058;12.190;2023-04-25T03:17:25;95301.72;;;6.51;100.00
23677;BME280;31493;49.058;12.190;2023-04-25T03:19:52;95292.88;;;6.55;100.00
23677;BME280;31493;49.058;12.190;2023-04-25T03:22:21;95288.97;;;6.62;100.00
23677;BME280;31493;49.058;12.190;2023-04-25T03:24:49;95291.75;;;6.59;100.00
23677;BME280;31493;49.058;12.190;2023-04-25T03:27:16;95289.28;;;6.58;100.00
23677;BME280;31493;49.058;12.190;2023-04-25T03:29:43;95277.97;;;6.60;100.00
23677;BME280;31493;49.058;12.190;2023-04-25T03:32:10;95287.72;;;6.55;100.00
23677;BME280;31493;49.058;12.190;2023-04-25T03:34:37;95278.47;;;6.53;100.00
23677;BME280;31493;49.058;12.190;2023-04-25T03:37:04;95284.16;;;6.58;100.00
23677;BME280;31493;49.058;12.190;2023-04-25T03:39:32;95289.75;;;6.50;100.00
23677;BME280;31493;49.058;12.190;2023-04-25T03:41:59;95286.25;;;6.38;100.00
23677;BME280;31493;49.058;12.190;2023-04-25T03:44:26;95289.28;;;6.31;100.00
23677;BME280;31493;49.058;12.190;2023-04-25T03:46:53;95286.44;;;6.35;100.00
23677;BME280;31493;49.058;12.190;2023-04-25T03:49:20;95283.28;;;6.44;100.00
23677;BME280;31493;49.058;12.190;2023-04-25T03:51:47;95293.63;;;6.30;100.00
23677;BME280;31493;49.058;12.190;2023-04-25T03:54:14;95302.78;;;6.34;100.00
23677;BME280;31493;49.058;12.190;2023-04-25T03:56:43;95312.59;;;6.42;100.00
23677;BME280;31493;49.058;12.190;2023-04-25T03:59:10;95299.00;;;6.40;100.00
23677;BME280;31493;49.058;12.190;2023-04-25T04:01:37;95299.53;;;6.45;100.00
23677;BME280;31493;49.058;12.190;2023-04-25T04:04:04;95294.19;;;6.48;100.00
23677;BME280;31493;49.058;12.190;2023-04-25T04:06:31;95297.00;;;6.58;100.00
23677;BME280;31493;49.058;12.190;2023-04-25T04:08:58;95308.94;;;6.59;100.00
23677;BME280;31493;49.058;12.190;2023-04-25T04:11:25;95298.38;;;6.63;100.00
23677;BME280;31493;49.058;12.190;2023-04-25T04:13:54;95291.38;;;6.65;100.00
23677;BME280;31493;49.058;12.190;2023-04-25T04:16:21;95297.03;;;6.70;100.00
23677;BME280;31493;49.058;12.190;2023-04-25T04:18:48;95280.78;;;6.70;100.00
23677;BME280;31493;49.058;12.190;2023-04-25T04:21:15;95295.47;;;6.68;100.00
23677;BME280;31493;49.058;12.190;2023-04-25T04:23:42;95291.38;;;6.65;100.00
23677;BME280;31493;49.058;12.190;2023-04-25T04:26:09;95293.50;;;6.59;100.00
23677;BME280;31493;49.058;12.190;2023-04-25T04:28:37;95292.28;;;6.64;100.00
23677;BME280;31493;49.058;12.190;2023-04-25T04:31:05;95291.66;;;6.61;100.00
23677;BME280;31493;49.058;12.190;2023-04-25T04:33:33;95295.06;;;6.61;100.00
23677;BME280;31493;49.058;12.190;2023-04-25T04:36:00;95305.75;;;6.68;100.00
23677;BME280;31493;49.058;12.190;2023-04-25T04:38:28;95300.34;;;6.72;100.00
23677;BME280;31493;49.058;12.190;2023-04-25T04:40:56;95288.41;;;6.71;100.00
23677;BME280;31493;49.058;12.190;2023-04-25T04:43:23;95290.06;;;6.85;100.00
23677;BME280;31493;49.058;12.190;2023-04-25T04:45:50;95288.97;;;7.02;100.00
23677;BME280;31493;49.058;12.190;2023-04-25T04:48:19;95295.22;;;6.98;100.00
23677;BME280;31493;49.058;12.190;2023-04-25T04:50:47;95289.69;;;7.04;100.00
23677;BME280;31493;49.058;12.190;2023-04-25T04:53:14;95280.31;;;7.03;100.00
23677;BME280;31493;49.058;12.190;2023-04-25T04:55:41;95283.00;;;7.02;100.00
23677;BME280;31493;49.058;12.190;2023-04-25T04:58:08;95289.91;;;7.14;100.00
23677;BME280;31493;49.058;12.190;2023-04-25T05:00:35;95286.38;;;7.02;100.00
23677;BME280;31493;49.058;12.190;2023-04-25T05:03:03;95301.84;;;7.02;100.00
23677;BME280;31493;49.058;12.190;2023-04-25T05:05:32;95293.69;;;6.95;100.00
23677;BME280;31493;49.058;12.190;2023-04-25T05:07:59;95295.84;;;6.89;100.00
23677;BME280;31493;49.058;12.190;2023-04-25T05:10:26;95301.56;;;6.80;100.00
23677;BME280;31493;49.058;12.190;2023-04-25T05:12:53;95304.56;;;6.86;100.00
23677;BME280;31493;49.058;12.190;2023-04-25T05:15:20;95291.16;;;6.68;100.00
23677;BME280;31493;49.058;12.190;2023-04-25T05:17:47;95293.31;;;6.62;100.00
23677;BME280;31493;49.058;12.190;2023-04-25T05:20:15;95292.19;;;6.66;100.00
23677;BME280;31493;49.058;12.190;2023-04-25T05:22:43;95282.13;;;6.76;100.00
23677;BME280;31493;49.058;12.190;2023-04-25T05:25:10;95293.53;;;6.71;100.00
23677;BME280;31493;49.058;12.190;2023-04-25T05:27:37;95297.22;;;6.67;100.00
23677;BME280;31493;49.058;12.190;2023-04-25T05:30:05;95295.78;;;6.63;100.00
23677;BME280;31493;49.058;12.190;2023-04-25T05:32:33;95289.28;;;6.58;100.00
23677;BME280;31493;49.058;12.190;2023-04-25T05:35:00;95289.19;;;6.59;100.00
23677;BME280;31493;49.058;12.190;2023-04-25T05:37:27;95291.28;;;6.80;100.00
23677;BME280;31493;49.058;12.190;2023-04-25T05:39:57;95288.16;;;7.02;100.00
23677;BME280;31493;49.058;12.190;2023-04-25T05:42:24;95297.06;;;6.83;100.00
23677;BME280;31493;49.058;12.190;2023-04-25T05:44:51;95285.13;;;6.82;100.00
23677;BME280;31493;49.058;12.190;2023-04-25T05:47:18;95299.34;;;6.88;100.00
23677;BME280;31493;49.058;12.190;2023-04-25T05:49:45;95291.22;;;6.94;100.00
23677;BME280;31493;49.058;12.190;2023-04-25T05:52:12;95302.44;;;7.06;100.00
23677;BME280;31493;49.058;12.190;2023-04-25T05:54:40;95288.75;;;7.18;100.00
23677;BME280;31493;49.058;12.190;2023-04-25T05:57:18;95299.06;;;7.43;100.00
23677;BME280;31493;49.058;12.190;2023-04-25T05:59:46;95288.97;;;7.40;100.00
23677;BME280;31493;49.058;12.190;2023-04-25T06:02:13;95281.22;;;7.53;100.00
23677;BME280;31493;49.058;12.190;2023-04-25T06:04:40;95284.41;;;7.69;100.00
23677;BME280;31493;49.058;12.190;2023-04-25T06:07:07;95284.84;;;7.63;100.00
23677;BME280;31493;49.058;12.190;2023-04-25T06:09:34;95287.13;;;7.55;100.00
23677;BME280;31493;49.058;12.190;2023-04-25T06:12:01;95284.31;;;7.58;100.00
23677;BME280;31493;49.058;12.190;2023-04-25T06:14:30;95295.56;;;7.44;100.00
23677;BME280;31493;49.058;12.190;2023-04-25T06:16:57;95290.28;;;7.59;100.00
23677;BME280;31493;49.058;12.190;2023-04-25T06:19:24;95274.19;;;7.80;100.00
23677;BME280;31493;49.058;12.190;2023-04-25T06:21:51;95282.28;;;8.00;100.00
23677;BME280;31493;49.058;12.190;2023-04-25T06:24:18;95282.31;;;8.24;100.00
23677;BME280;31493;49.058;12.190;2023-04-25T06:26:45;95273.13;;;8.20;100.00
23677;BME280;31493;49.058;12.190;2023-04-25T06:29:13;95284.88;;;8.37;100.00
23677;BME280;31493;49.058;12.190;2023-04-25T06:31:41;95268.38;;;8.26;99.22
23677;BME280;31493;49.058;12.190;2023-04-25T06:34:08;95263.19;;;8.39;99.46
23677;BME280;31493;49.058;12.190;2023-04-25T06:36:35;95268.88;;;8.31;96.98
23677;BME280;31493;49.058;12.190;2023-04-25T06:39:02;95268.16;;;8.29;98.80
23677;BME280;31493;49.058;12.190;2023-04-25T06:41:29;95262.56;;;8.12;97.65
23677;BME280;31493;49.058;12.190;2023-04-25T06:43:56;95267.47;;;8.15;100.00
23677;BME280;31493;49.058;12.190;2023-04-25T06:46:23;95258.44;;;8.33;99.09
23677;BME280;31493;49.058;12.190;2023-04-25T06:48:52;95266.75;;;8.49;98.47
23677;BME280;31493;49.058;12.190;2023-04-25T06:51:19;95270.22;;;8.37;97.98
23677;BME280;31493;49.058;12.190;2023-04-25T06:53:46;95278.25;;;8.32;97.84
23677;BME280;31493;49.058;12.190;2023-04-25T06:56:13;95271.22;;;8.34;95.95
23677;BME280;31493;49.058;12.190;2023-04-25T06:58:40;95282.22;;;8.49;100.00
23677;BME280;31493;49.058;12.190;2023-04-25T07:01:07;95274.00;;;8.44;99.47
23677;BME280;31493;49.058;12.190;2023-04-25T07:03:34;95275.94;;;8.53;98.73
23677;BME280;31493;49.058;12.190;2023-04-25T07:06:04;95274.44;;;8.97;97.44
23677;BME280;31493;49.058;12.190;2023-04-25T07:08:31;95280.59;;;8.83;94.85
23677;BME280;31493;49.058;12.190;2023-04-25T07:10:58;95281.03;;;8.77;95.53
23677;BME280;31493;49.058;12.190;2023-04-25T07:13:25;95275.81;;;8.90;98.30
23677;BME280;31493;49.058;12.190;2023-04-25T07:15:52;95270.72;;;8.42;95.62
23677;BME280;31493;49.058;12.190;2023-04-25T07:18:19;95286.94;;;8.55;95.00
23677;BME280;31493;49.058;12.190;2023-04-25T07:20:46;95282.78;;;8.66;95.53
23677;BME280;31493;49.058;12.190;2023-04-25T07:23:14;95283.09;;;8.61;94.40
23677;BME280;31493;49.058;12.190;2023-04-25T07:25:41;95276.56;;;8.68;94.11
23677;BME280;31493;49.058;12.190;2023-04-25T07:28:08;95275.94;;;9.00;93.26
23677;BME280;31493;49.058;12.190;2023-04-25T07:30:35;95269.19;;;9.32;91.84
23677;BME280;31493;49.058;12.190;2023-04-25T07:33:02;95268.63;;;9.51;96.08
23677;BME280;31493;49.058;12.190;2023-04-25T07:35:30;95268.00;;;9.03;89.58
23677;BME280;31493;49.058;12.190;2023-04-25T07:37:57;95277.91;;;8.85;90.56
23677;BME280;31493;49.058;12.190;2023-04-25T07:40:26;95279.25;;;8.67;91.64
23677;BME280;31493;49.058;12.190;2023-04-25T07:42:53;95279.97;;;8.69;91.63
23677;BME280;31493;49.058;12.190;2023-04-25T07:45:20;95289.22;;;8.60;92.61
23677;BME280;31493;49.058;12.190;2023-04-25T07:47:46;95280.91;;;8.68;90.04
23677;BME280;31493;49.058;12.190;2023-04-25T07:50:13;95291.28;;;8.79;89.88
23677;BME280;31493;49.058;12.190;2023-04-25T07:52:40;95274.06;;;8.91;91.33
23677;BME280;31493;49.058;12.190;2023-04-25T07:55:08;95277.97;;;9.19;86.43
23677;BME280;31493;49.058;12.190;2023-04-25T07:57:37;95281.50;;;9.18;84.29
23677;BME280;31493;49.058;12.190;2023-04-25T08:00:05;95281.81;;;9.02;84.33
23677;BME280;31493;49.058;12.190;2023-04-25T08:02:35;95264.84;;;9.22;85.59
23677;BME280;31493;49.058;12.190;2023-04-25T08:05:02;95269.91;;;9.23;82.60
23677;BME280;31493;49.058;12.190;2023-04-25T08:07:29;95271.69;;;9.34;85.13
23677;BME280;31493;49.058;12.190;2023-04-25T08:09:56;95276.50;;;9.27;84.65
23677;BME280;31493;49.058;12.190;2023-04-25T08:12:23;95273.31;;;9.68;89.05
23677;BME280;31493;49.058;12.190;2023-04-25T08:14:51;95274.03;;;9.71;88.51
23677;BME280;31493;49.058;12.190;2023-04-25T08:17:19;95274.88;;;9.60;85.98
23677;BME280;31493;49.058;12.190;2023-04-25T08:19:45;95273.91;;;9.50;84.79
23677;BME280;31493;49.058;12.190;2023-04-25T08:22:12;95275.91;;;9.46;84.38
23677;BME280;31493;49.058;12.190;2023-04-25T08:24:41;95282.81;;;9.23;83.84
23677;BME280;31493;49.058;12.190;2023-04-25T08:27:08;95272.34;;;9.25;85.81
23677;BME280;31493;49.058;12.190;2023-04-25T08:29:35;95270.34;;;9.06;85.13
23677;BME280;31493;49.058;12.190;2023-04-25T08:32:04;95291.16;;;8.80;83.11
23677;BME280;31493;49.058;12.190;2023-04-25T08:34:31;95282.44;;;9.17;84.75
23677;BME280;31493;49.058;12.190;2023-04-25T08:36:58;95299.25;;;8.87;82.61
23677;BME280;31493;49.058;12.190;2023-04-25T08:39:25;95279.47;;;8.99;82.29
23677;BME280;31493;49.058;12.190;2023-04-25T08:41:52;95280.81;;;8.80;82.66
23677;BME280;31493;49.058;12.190;2023-04-25T08:44:20;95295.63;;;8.89;82.73
23677;BME280;31493;49.058;12.190;2023-04-25T08:46:48;95294.19;;;9.09;83.17
23677;BME280;31493;49.058;12.190;2023-04-25T08:49:18;95290.69;;;9.22;84.87
23677;BME280;31493;49.058;12.190;2023-04-25T08:51:46;95297.38;;;9.24;85.55
23677;BME280;31493;49.058;12.190;2023-04-25T08:54:15;95307.34;;;9.18;86.42
23677;BME280;31493;49.058;12.190;2023-04-25T08:56:44;95305.19;;;9.11;86.98
23677;BME280;31493;49.058;12.190;2023-04-25T08:59:12;95313.88;;;8.75;85.70
23677;BME280;31493;49.058;12.190;2023-04-25T09:01:39;95310.94;;;9.04;87.21
23677;BME280;31493;49.058;12.190;2023-04-25T09:04:06;95306.28;;;9.20;86.73
23677;BME280;31493;49.058;12.190;2023-04-25T09:06:35;95305.34;;;9.32;85.82
23677;BME280;31493;49.058;12.190;2023-04-25T09:09:03;95305.94;;;9.25;83.37
23677;BME280;31493;49.058;12.190;2023-04-25T09:11:32;95316.41;;;9.34;85.90
23677;BME280;31493;49.058;12.190;2023-04-25T09:14:13;95320.88;;;9.43;83.70
23677;BME280;31493;49.058;12.190;2023-04-25T09:17:00;95308.56;;;9.81;86.19
23677;BME280;31493;49.058;12.190;2023-04-25T09:19:29;95314.09;;;9.65;82.84
23677;BME280;31493;49.058;12.190;2023-04-25T09:21:59;95309.88;;;9.98;80.40
23677;BME280;31493;49.058;12.190;2023-04-25T09:24:35;95305.38;;;10.33;81.98
23677;BME280;31493;49.058;12.190;2023-04-25T09:27:06;95317.53;;;10.65;81.25
23677;BME280;31493;49.058;12.190;2023-04-25T09:29:34;95310.06;;;10.06;81.34
23677;BME280;31493;49.058;12.190;2023-04-25T09:32:15;95311.75;;;9.73;81.49
23677;BME280;31493;49.058;12.190;2023-04-25T09:34:44;95318.34;;;9.77;82.06
23677;BME280;31493;49.058;12.190;2023-04-25T09:37:18;95333.13;;;9.64;81.42
23677;BME280;31493;49.058;12.190;2023-04-25T09:39:47;95331.22;;;9.43;79.12
23677;BME280;31493;49.058;12.190;2023-04-25T09:42:14;95340.16;;;9.39;82.93
23677;BME280;31493;49.058;12.190;2023-04-25T09:44:43;95351.56;;;9.13;87.57
23677;BME280;31493;49.058;12.190;2023-04-25T09:47:11;95355.34;;;8.61;93.10
23677;BME280;31493;49.058;12.190;2023-04-25T09:49:40;95370.50;;;8.29;95.28
23677;BME280;31493;49.058;12.190;2023-04-25T09:52:14;95367.91;;;8.42;94.21
23677;BME280;31493;49.058;12.190;2023-04-25T09:54:43;95360.06;;;8.43;96.34
23677;BME280;31493;49.058;12.190;2023-04-25T09:57:12;95342.56;;;9.30;97.91
23677;BME280;31493;49.058;12.190;2023-04-25T09:59:44;95349.41;;;9.42;91.94
23677;BME280;31493;49.058;12.190;2023-04-25T10:02:12;95345.13;;;9.19;90.96
23677;BME280;31493;49.058;12.190;2023-04-25T10:04:41;95364.75;;;9.21;93.14
23677;BME280;31493;49.058;12.190;2023-04-25T10:07:08;95350.78;;;8.65;91.50
23677;BME280;31493;49.058;12.190;2023-04-25T10:09:37;95366.75;;;8.70;90.28
23677;BME280;31493;49.058;12.190;2023-04-25T10:12:06;95359.44;;;8.87;89.44
23677;BME280;31493;49.058;12.190;2023-04-25T10:14:34;95355.06;;;9.47;92.15
23677;BME280;31493;49.058;12.190;2023-04-25T10:17:01;95363.28;;;9.63;90.61
23677;BME280;31493;49.058;12.190;2023-04-25T10:19:28;95360.94;;;9.49;93.45
23677;BME280;31493;49.058;12.190;2023-04-25T10:22:03;95359.25;;;8.91;96.11
23677;BME280;31493;49.058;12.190;2023-04-25T10:24:31;95373.28;;;8.63;98.50
23677;BME280;31493;49.058;12.190;2023-04-25T10:26:59;95371.41;;;8.88;100.00
23677;BME280;31493;49.058;12.190;2023-04-25T10:29:29;95376.25;;;8.32;98.84
23677;BME280;31493;49.058;12.190;2023-04-25T10:31:56;95378.03;;;8.19;100.00
23677;BME280;31493;49.058;12.190;2023-04-25T10:34:24;95382.41;;;7.93;100.00
23677;BME280;31493;49.058;12.190;2023-04-25T10:37:04;95378.91;;;7.94;100.00
23677;BME280;31493;49.058;12.190;2023-04-25T10:39:32;95384.25;;;7.66;100.00
23677;BME280;31493;49.058;12.190;2023-04-25T10:42:02;95377.66;;;7.87;100.00
23677;BME280;31493;49.058;12.190;2023-04-25T10:44:31;95381.59;;;7.80;100.00
23677;BME280;31493;49.058;12.190;2023-04-25T10:47:00;95371.25;;;8.55;100.00
23677;BME280;31493;49.058;12.190;2023-04-25T10:49:30;95374.44;;;8.58;99.87
23677;BME280;31493;49.058;12.190;2023-04-25T10:52:13;95380.69;;;8.43;98.51
23677;BME280;31493;49.058;12.190;2023-04-25T10:54:41;95378.69;;;8.59;99.52
23677;BME280;31493;49.058;12.190;2023-04-25T10:57:27;95371.69;;;8.49;99.55
23677;BME280;31493;49.058;12.190;2023-04-25T10:59:59;95368.31;;;9.07;96.53
23677;BME280;31493;49.058;12.190;2023-04-25T11:02:28;95375.47;;;9.39;94.28
23677;BME280;31493;49.058;12.190;2023-04-25T11:04:56;95365.13;;;9.28;93.46
23677;BME280;31493;49.058;12.190;2023-04-25T11:07:33;95375.59;;;9.02;87.99
23677;BME280;31493;49.058;12.190;2023-04-25T11:10:03;95382.91;;;9.08;87.39
23677;BME280;31493;49.058;12.190;2023-04-25T11:12:31;95386.75;;;8.55;83.35
23677;BME280;31493;49.058;12.190;2023-04-25T11:15:01;95376.34;;;9.15;85.61
23677;BME280;31493;49.058;12.190;2023-04-25T11:17:28;95362.84;;;9.58;81.70
23677;BME280;31493;49.058;12.190;2023-04-25T11:19:56;95378.47;;;9.79;79.34
23677;BME280;31493;49.058;12.190;2023-04-25T11:22:23;95367.25;;;10.80;78.27
23677;BME280;31493;49.058;12.190;2023-04-25T11:24:50;95364.06;;;10.87;72.61
23677;BME280;31493;49.058;12.190;2023-04-25T11:27:18;95363.56;;;10.05;73.63
23677;BME280;31493;49.058;12.190;2023-04-25T11:29:45;95376.16;;;9.99;76.50
23677;BME280;31493;49.058;12.190;2023-04-25T11:32:16;95375.47;;;10.19;75.46
23677;BME280;31493;49.058;12.190;2023-04-25T11:34:44;95357.47;;;11.15;76.74
23677;BME280;31493;49.058;12.190;2023-04-25T11:37:12;95367.78;;;10.94;73.54
23677;BME280;31493;49.058;12.190;2023-04-25T11:39:42;95368.78;;;10.82;71.86
23677;BME280;31493;49.058;12.190;2023-04-25T11:42:10;95362.41;;;10.09;74.65
23677;BME280;31493;49.058;12.190;2023-04-25T11:44:38;95389.16;;;9.52;75.24
23677;BME280;31493;49.058;12.190;2023-04-25T11:47:05;95377.66;;;9.67;78.48
23677;BME280;31493;49.058;12.190;2023-04-25T11:49:35;95374.03;;;10.15;76.32
23677;BME280;31493;49.058;12.190;2023-04-25T11:52:02;95363.06;;;10.99;76.06
23677;BME280;31493;49.058;12.190;2023-04-25T11:54:29;95372.47;;;10.68;70.39
23677;BME280;31493;49.058;12.190;2023-04-25T11:56:56;95380.50;;;10.09;67.67
23677;BME280;31493;49.058;12.190;2023-04-25T11:59:24;95364.06;;;10.87;72.88
23677;BME280;31493;49.058;12.190;2023-04-25T12:01:52;95367.41;;;10.56;69.53
23677;BME280;31493;49.058;12.190;2023-04-25T12:04:20;95364.53;;;10.38;68.45
23677;BME280;31493;49.058;12.190;2023-04-25T12:06:50;95376.13;;;10.55;67.73
23677;BME280;31493;49.058;12.190;2023-04-25T12:09:20;95375.00;;;10.25;66.24
23677;BME280;31493;49.058;12.190;2023-04-25T12:11:48;95374.16;;;10.13;66.41
23677;BME280;31493;49.058;12.190;2023-04-25T12:14:22;95371.31;;;10.16;64.11
23677;BME280;31493;49.058;12.190;2023-04-25T12:16:49;95371.22;;;10.52;63.89
23677;BME280;31493;49.058;12.190;2023-04-25T12:19:18;95367.22;;;11.86;67.70
23677;BME280;31493;49.058;12.190;2023-04-25T12:21:45;95364.75;;;12.55;64.72
23677;BME280;31493;49.058;12.190;2023-04-25T12:24:15;95368.50;;;12.31;61.31
23677;BME280;31493;49.058;12.190;2023-04-25T12:26:53;95364.44;;;11.56;64.84
23677;BME280;31493;49.058;12.190;2023-04-25T12:29:23;95373.78;;;10.63;63.90
23677;BME280;31493;49.058;12.190;2023-04-25T12:31:51;95385.25;;;11.13;68.67
23677;BME280;31493;49.058;12.190;2023-04-25T12:34:19;95385.66;;;10.54;67.00
23677;BME280;31493;49.058;12.190;2023-04-25T12:36:46;95387.28;;;10.55;68.73
23677;BME280;31493;49.058;12.190;2023-04-25T12:39:19;95382.75;;;10.36;68.42
23677;BME280;31493;49.058;12.190;2023-04-25T12:41:48;95378.72;;;10.55;70.66
23677;BME280;31493;49.058;12.190;2023-04-25T12:44:15;95377.81;;;10.33;65.67
23677;BME280;31493;49.058;12.190;2023-04-25T12:46:43;95386.88;;;10.28;65.33
23677;BME280;31493;49.058;12.190;2023-04-25T12:49:10;95390.06;;;10.31;64.81
23677;BME280;31493;49.058;12.190;2023-04-25T12:51:38;95385.41;;;10.12;65.40
23677;BME280;31493;49.058;12.190;2023-04-25T12:54:07;95401.31;;;10.53;67.36
23677;BME280;31493;49.058;12.190;2023-04-25T12:56:36;95389.59;;;10.26;66.06